sensor_id;sensor_type;location;lat;lon;timestamp;P1;durP1;ratioP1;P2;durP2;ratioP2
15466;SDS011;7834;49.452;11.056;2022-11-20T00:02:19;27.40;;;16.83;;
15466;SDS011;7834;49.452;11.056;2022-11-20T00:04:45;28.53;;;18.50;;
15466;SDS011;7834;49.452;11.056;2022-11-20T00:07:11;24.40;;;16.70;;
15466;SDS011;7834;49.452;11.056;2022-11-20T00:09:37;27.73;;;18.20;;
15466;SDS011;7834;49.452;11.056;2022-11-20T00:12:03;25.83;;;17.33;;
15466;SDS011;7834;49.452;11.056;2022-11-20T00:14:29;26.33;;;17.80;;
15466;SDS011;7834;49.452;11.056;2022-11-20T00:16:55;25.53;;;17.47;;
15466;SDS011;7834;49.452;11.056;2022-11-20T00:19:21;26.43;;;17.73;;
15466;SDS011;7834;49.452;11.056;2022-11-20T00:21:47;27.40;;;18.17;;
15466;SDS011;7834;49.452;11.056;2022-11-20T00:24:16;28.27;;;17.90;;
15466;SDS011;7834;49.452;11.056;2022-11-20T00:26:42;27.50;;;18.40;;
15466;SDS011;7834;49.452;11.056;2022-11-20T00:29:08;26.43;;;17.30;;
15466;SDS011;7834;49.452;11.056;2022-11-20T00:31:35;26.87;;;18.20;;
15466;SDS011;7834;49.452;11.056;2022-11-20T00:34:01;30.13;;;19.33;;
15466;SDS011;7834;49.452;11.056;2022-11-20T00:36:28;28.40;;;19.33;;
15466;SDS011;7834;49.452;11.056;2022-11-20T00:38:55;26.77;;;17.67;;
15466;SDS011;7834;49.452;11.056;2022-11-20T00:41:22;27.77;;;18.50;;
15466;SDS011;7834;49.452;11.056;2022-11-20T00:43:48;30.97;;;19.13;;
15466;SDS011;7834;49.452;11.056;2022-11-20T00:46:15;32.43;;;19.57;;
15466;SDS011;7834;49.452;11.056;2022-11-20T00:48:42;33.00;;;20.27;;
15466;SDS011;7834;49.452;11.056;2022-11-20T00:51:09;30.17;;;19.13;;
15466;SDS011;7834;49.452;11.056;2022-11-20T00:53:36;30.97;;;20.13;;
15466;SDS011;7834;49.452;11.056;2022-11-20T00:56:03;31.30;;;20.23;;
15466;SDS011;7834;49.452;11.056;2022-11-20T00:58:30;30.77;;;19.83;;
15466;SDS011;7834;49.452;11.056;2022-11-20T01:01:00;31.30;;;19.70;;
15466;SDS011;7834;49.452;11.056;2022-11-20T01:03:27;29.83;;;20.43;;
15466;SDS011;7834;49.452;11.056;2022-11-20T01:05:53;29.73;;;19.97;;
15466;SDS011;7834;49.452;11.056;2022-11-20T01:08:19;32.40;;;19.70;;
15466;SDS011;7834;49.452;11.056;2022-11-20T01:10:45;33.43;;;20.53;;
15466;SDS011;7834;49.452;11.056;2022-11-20T01:13:11;30.87;;;20.10;;
15466;SDS011;7834;49.452;11.056;2022-11-20T01:16:01;29.93;;;19.70;;
15466;SDS011;7834;49.452;11.056;2022-11-20T01:18:27;30.13;;;19.87;;
15466;SDS011;7834;49.452;11.056;2022-11-20T01:20:53;30.20;;;20.13;;
15466;SDS011;7834;49.452;11.056;2022-11-20T01:23:19;30.60;;;20.60;;
15466;SDS011;7834;49.452;11.056;2022-11-20T01:25:45;31.60;;;20.80;;
15466;SDS011;7834;49.452;11.056;2022-11-20T01:28:11;28.77;;;19.77;;
15466;SDS011;7834;49.452;11.056;2022-11-20T01:30:37;31.90;;;20.67;;
15466;SDS011;7834;49.452;11.056;2022-11-20T01:33:03;32.77;;;20.73;;
15466;SDS011;7834;49.452;11.056;2022-11-20T01:35:29;33.33;;;20.53;;
15466;SDS011;7834;49.452;11.056;2022-11-20T01:37:55;29.23;;;19.73;;
15466;SDS011;7834;49.452;11.056;2022-11-20T01:40:21;32.47;;;20.40;;
15466;SDS011;7834;49.452;11.056;2022-11-20T01:42:48;31.80;;;21.30;;
15466;SDS011;7834;49.452;11.056;2022-11-20T01:48:11;34.03;;;20.60;;
15466;SDS011;7834;49.452;11.056;2022-11-20T01:50:38;29.87;;;19.77;;
15466;SDS011;7834;49.452;11.056;2022-11-20T01:53:05;31.00;;;19.93;;
15466;SDS011;7834;49.452;11.056;2022-11-20T01:55:33;33.93;;;21.43;;
15466;SDS011;7834;49.452;11.056;2022-11-20T01:58:02;32.93;;;20.13;;
15466;SDS011;7834;49.452;11.056;2022-11-20T02:00:28;33.23;;;20.73;;
15466;SDS011;7834;49.452;11.056;2022-11-20T02:02:58;33.07;;;20.63;;
15466;SDS011;7834;49.452;11.056;2022-11-20T02:07:54;32.67;;;20.07;;
15466;SDS011;7834;49.452;11.056;2022-11-20T02:10:21;31.33;;;19.67;;
15466;SDS011;7834;49.452;11.056;2022-11-20T02:12:47;28.47;;;19.27;;
15466;SDS011;7834;49.452;11.056;2022-11-20T02:15:32;30.97;;;19.57;;
15466;SDS011;7834;49.452;11.056;2022-11-20T02:17:58;33.03;;;20.33;;
15466;SDS011;7834;49.452;11.056;2022-11-20T02:20:24;31.43;;;19.47;;
15466;SDS011;7834;49.452;11.056;2022-11-20T02:22:53;35.40;;;21.63;;
15466;SDS011;7834;49.452;11.056;2022-11-20T02:25:20;31.90;;;20.30;;
15466;SDS011;7834;49.452;11.056;2022-11-20T02:27:46;34.40;;;21.00;;
15466;SDS011;7834;49.452;11.056;2022-11-20T02:30:13;33.40;;;20.57;;
15466;SDS011;7834;49.452;11.056;2022-11-20T02:32:39;34.17;;;21.27;;
15466;SDS011;7834;49.452;11.056;2022-11-20T02:35:06;32.83;;;20.57;;
15466;SDS011;7834;49.452;11.056;2022-11-20T02:37:33;34.27;;;21.33;;
15466;SDS011;7834;49.452;11.056;2022-11-20T02:40:00;34.80;;;21.70;;
15466;SDS011;7834;49.452;11.056;2022-11-20T02:42:26;32.43;;;20.10;;
15466;SDS011;7834;49.452;11.056;2022-11-20T02:44:52;33.50;;;20.73;;
15466;SDS011;7834;49.452;11.056;2022-11-20T02:47:18;32.97;;;19.90;;
15466;SDS011;7834;49.452;11.056;2022-11-20T02:49:44;33.20;;;20.47;;
15466;SDS011;7834;49.452;11.056;2022-11-20T02:52:10;29.47;;;20.27;;
15466;SDS011;7834;49.452;11.056;2022-11-20T02:54:36;32.80;;;20.77;;
15466;SDS011;7834;49.452;11.056;2022-11-20T02:57:02;32.33;;;20.20;;
15466;SDS011;7834;49.452;11.056;2022-11-20T02:59:28;33.00;;;20.83;;
15466;SDS011;7834;49.452;11.056;2022-11-20T03:01:54;31.77;;;20.10;;
15466;SDS011;7834;49.452;11.056;2022-11-20T03:04:20;31.70;;;19.67;;
15466;SDS011;7834;49.452;11.056;2022-11-20T03:06:46;34.73;;;20.73;;
15466;SDS011;7834;49.452;11.056;2022-11-20T03:09:12;32.87;;;20.60;;
15466;SDS011;7834;49.452;11.056;2022-11-20T03:11:38;33.20;;;20.63;;
15466;SDS011;7834;49.452;11.056;2022-11-20T03:14:04;32.77;;;20.73;;
15466;SDS011;7834;49.452;11.056;2022-11-20T03:16:30;32.30;;;20.03;;
15466;SDS011;7834;49.452;11.056;2022-11-20T03:18:57;30.53;;;19.57;;
15466;SDS011;7834;49.452;11.056;2022-11-20T03:21:23;32.87;;;20.37;;
15466;SDS011;7834;49.452;11.056;2022-11-20T03:23:49;31.30;;;20.27;;
15466;SDS011;7834;49.452;11.056;2022-11-20T03:26:19;32.03;;;19.93;;
15466;SDS011;7834;49.452;11.056;2022-11-20T03:28:47;30.50;;;19.97;;
15466;SDS011;7834;49.452;11.056;2022-11-20T03:31:14;31.87;;;20.03;;
15466;SDS011;7834;49.452;11.056;2022-11-20T03:33:40;30.53;;;19.67;;
15466;SDS011;7834;49.452;11.056;2022-11-20T03:36:07;32.17;;;20.17;;
15466;SDS011;7834;49.452;11.056;2022-11-20T03:38:34;31.23;;;19.97;;
15466;SDS011;7834;49.452;11.056;2022-11-20T03:41:04;35.67;;;21.57;;
15466;SDS011;7834;49.452;11.056;2022-11-20T03:43:30;32.57;;;20.37;;
15466;SDS011;7834;49.452;11.056;2022-11-20T03:45:56;30.17;;;19.67;;
15466;SDS011;7834;49.452;11.056;2022-11-20T03:48:23;34.13;;;20.93;;
15466;SDS011;7834;49.452;11.056;2022-11-20T03:50:49;32.93;;;20.73;;
15466;SDS011;7834;49.452;11.056;2022-11-20T03:53:15;33.93;;;20.20;;
15466;SDS011;7834;49.452;11.056;2022-11-20T03:55:41;33.07;;;20.50;;
15466;SDS011;7834;49.452;11.056;2022-11-20T03:58:08;36.83;;;22.53;;
15466;SDS011;7834;49.452;11.056;2022-11-20T04:00:34;34.80;;;21.57;;
15466;SDS011;7834;49.452;11.056;2022-11-20T04:03:00;31.70;;;19.60;;
15466;SDS011;7834;49.452;11.056;2022-11-20T04:05:27;31.63;;;20.07;;
15466;SDS011;7834;49.452;11.056;2022-11-20T04:07:53;33.73;;;20.17;;
15466;SDS011;7834;49.452;11.056;2022-11-20T04:10:19;32.07;;;19.40;;
15466;SDS011;7834;49.452;11.056;2022-11-20T04:12:45;32.23;;;20.17;;
15466;SDS011;7834;49.452;11.056;2022-11-20T04:15:11;31.93;;;19.63;;
15466;SDS011;7834;49.452;11.056;2022-11-20T04:17:37;36.00;;;19.90;;
15466;SDS011;7834;49.452;11.056;2022-11-20T04:20:03;33.70;;;19.80;;
15466;SDS011;7834;49.452;11.056;2022-11-20T04:22:30;35.13;;;20.80;;
15466;SDS011;7834;49.452;11.056;2022-11-20T04:24:56;36.07;;;20.80;;
15466;SDS011;7834;49.452;11.056;2022-11-20T04:27:22;33.43;;;20.07;;
15466;SDS011;7834;49.452;11.056;2022-11-20T04:29:48;32.03;;;19.43;;
15466;SDS011;7834;49.452;11.056;2022-11-20T04:32:14;30.37;;;18.90;;
15466;SDS011;7834;49.452;11.056;2022-11-20T04:34:39;32.87;;;19.93;;
15466;SDS011;7834;49.452;11.056;2022-11-20T04:37:05;31.80;;;19.93;;
15466;SDS011;7834;49.452;11.056;2022-11-20T04:39:31;33.00;;;19.80;;
15466;SDS011;7834;49.452;11.056;2022-11-20T04:41:57;33.17;;;20.20;;
15466;SDS011;7834;49.452;11.056;2022-11-20T04:44:42;32.50;;;19.37;;
15466;SDS011;7834;49.452;11.056;2022-11-20T04:47:08;27.90;;;17.37;;
15466;SDS011;7834;49.452;11.056;2022-11-20T04:49:34;31.17;;;19.47;;
15466;SDS011;7834;49.452;11.056;2022-11-20T04:52:00;32.67;;;19.27;;
15466;SDS011;7834;49.452;11.056;2022-11-20T04:54:26;31.00;;;19.00;;
15466;SDS011;7834;49.452;11.056;2022-11-20T04:56:52;30.70;;;18.60;;
15466;SDS011;7834;49.452;11.056;2022-11-20T04:59:18;29.77;;;18.17;;
15466;SDS011;7834;49.452;11.056;2022-11-20T05:01:44;30.73;;;19.00;;
15466;SDS011;7834;49.452;11.056;2022-11-20T05:04:10;26.63;;;17.63;;
15466;SDS011;7834;49.452;11.056;2022-11-20T05:06:36;30.63;;;18.77;;
15466;SDS011;7834;49.452;11.056;2022-11-20T05:09:02;31.17;;;18.83;;
15466;SDS011;7834;49.452;11.056;2022-11-20T05:11:28;28.30;;;17.20;;
15466;SDS011;7834;49.452;11.056;2022-11-20T05:13:54;27.43;;;17.30;;
15466;SDS011;7834;49.452;11.056;2022-11-20T05:16:22;27.70;;;16.87;;
15466;SDS011;7834;49.452;11.056;2022-11-20T05:18:49;26.67;;;17.47;;
15466;SDS011;7834;49.452;11.056;2022-11-20T05:21:16;29.27;;;17.57;;
15466;SDS011;7834;49.452;11.056;2022-11-20T05:23:42;26.33;;;17.07;;
15466;SDS011;7834;49.452;11.056;2022-11-20T05:26:13;26.80;;;17.43;;
15466;SDS011;7834;49.452;11.056;2022-11-20T05:28:39;29.67;;;17.90;;
15466;SDS011;7834;49.452;11.056;2022-11-20T05:31:12;27.63;;;17.47;;
15466;SDS011;7834;49.452;11.056;2022-11-20T05:33:39;25.80;;;16.47;;
15466;SDS011;7834;49.452;11.056;2022-11-20T05:36:06;28.10;;;17.60;;
15466;SDS011;7834;49.452;11.056;2022-11-20T05:38:32;26.67;;;17.03;;
15466;SDS011;7834;49.452;11.056;2022-11-20T05:41:05;27.07;;;17.23;;
15466;SDS011;7834;49.452;11.056;2022-11-20T05:43:32;27.07;;;17.17;;
15466;SDS011;7834;49.452;11.056;2022-11-20T05:45:58;24.83;;;16.23;;
15466;SDS011;7834;49.452;11.056;2022-11-20T05:48:24;27.90;;;16.90;;
15466;SDS011;7834;49.452;11.056;2022-11-20T05:50:50;27.17;;;16.90;;
15466;SDS011;7834;49.452;11.056;2022-11-20T05:53:16;25.50;;;16.03;;
15466;SDS011;7834;49.452;11.056;2022-11-20T05:55:43;25.90;;;16.03;;
15466;SDS011;7834;49.452;11.056;2022-11-20T05:58:09;28.13;;;16.67;;
15466;SDS011;7834;49.452;11.056;2022-11-20T06:00:35;26.80;;;16.37;;
15466;SDS011;7834;49.452;11.056;2022-11-20T06:03:01;25.90;;;16.30;;
15466;SDS011;7834;49.452;11.056;2022-11-20T06:05:27;26.80;;;16.97;;
15466;SDS011;7834;49.452;11.056;2022-11-20T06:07:53;25.87;;;16.20;;
15466;SDS011;7834;49.452;11.056;2022-11-20T06:10:19;28.03;;;16.67;;
15466;SDS011;7834;49.452;11.056;2022-11-20T06:12:45;27.40;;;16.47;;
15466;SDS011;7834;49.452;11.056;2022-11-20T06:15:11;23.63;;;14.47;;
15466;SDS011;7834;49.452;11.056;2022-11-20T06:17:37;25.43;;;16.03;;
15466;SDS011;7834;49.452;11.056;2022-11-20T06:20:03;26.40;;;15.70;;
15466;SDS011;7834;49.452;11.056;2022-11-20T06:22:29;26.73;;;16.07;;
15466;SDS011;7834;49.452;11.056;2022-11-20T06:24:55;24.50;;;15.73;;
15466;SDS011;7834;49.452;11.056;2022-11-20T06:27:21;25.27;;;15.50;;
15466;SDS011;7834;49.452;11.056;2022-11-20T06:29:47;25.47;;;16.13;;
15466;SDS011;7834;49.452;11.056;2022-11-20T06:32:13;24.60;;;16.23;;
15466;SDS011;7834;49.452;11.056;2022-11-20T06:34:39;25.50;;;15.93;;
15466;SDS011;7834;49.452;11.056;2022-11-20T06:37:05;26.83;;;16.87;;
15466;SDS011;7834;49.452;11.056;2022-11-20T06:39:31;26.37;;;15.33;;
15466;SDS011;7834;49.452;11.056;2022-11-20T06:41:57;24.47;;;15.43;;
15466;SDS011;7834;49.452;11.056;2022-11-20T06:44:23;22.67;;;15.20;;
15466;SDS011;7834;49.452;11.056;2022-11-20T06:46:49;24.77;;;15.97;;
15466;SDS011;7834;49.452;11.056;2022-11-20T06:49:15;24.10;;;15.00;;
15466;SDS011;7834;49.452;11.056;2022-11-20T06:51:41;24.30;;;15.60;;
15466;SDS011;7834;49.452;11.056;2022-11-20T06:54:07;25.40;;;15.70;;
15466;SDS011;7834;49.452;11.056;2022-11-20T06:56:33;26.17;;;15.33;;
15466;SDS011;7834;49.452;11.056;2022-11-20T06:59:03;24.73;;;14.90;;
15466;SDS011;7834;49.452;11.056;2022-11-20T07:01:29;26.40;;;15.90;;
15466;SDS011;7834;49.452;11.056;2022-11-20T07:03:55;25.87;;;15.50;;
15466;SDS011;7834;49.452;11.056;2022-11-20T07:06:21;25.17;;;15.70;;
15466;SDS011;7834;49.452;11.056;2022-11-20T07:08:47;24.00;;;15.43;;
15466;SDS011;7834;49.452;11.056;2022-11-20T07:11:13;26.23;;;15.83;;
15466;SDS011;7834;49.452;11.056;2022-11-20T07:13:39;26.23;;;15.77;;
15466;SDS011;7834;49.452;11.056;2022-11-20T07:16:06;24.87;;;15.30;;
15466;SDS011;7834;49.452;11.056;2022-11-20T07:18:32;25.73;;;15.50;;
15466;SDS011;7834;49.452;11.056;2022-11-20T07:21:02;23.43;;;14.83;;
15466;SDS011;7834;49.452;11.056;2022-11-20T07:23:28;25.10;;;15.37;;
15466;SDS011;7834;49.452;11.056;2022-11-20T07:25:54;23.47;;;15.13;;
15466;SDS011;7834;49.452;11.056;2022-11-20T07:28:20;25.13;;;15.03;;
15466;SDS011;7834;49.452;11.056;2022-11-20T07:30:50;24.80;;;15.10;;
15466;SDS011;7834;49.452;11.056;2022-11-20T07:33:16;22.30;;;15.13;;
15466;SDS011;7834;49.452;11.056;2022-11-20T07:35:42;27.20;;;16.13;;
15466;SDS011;7834;49.452;11.056;2022-11-20T07:38:08;24.10;;;15.17;;
15466;SDS011;7834;49.452;11.056;2022-11-20T07:40:34;25.47;;;15.73;;
15466;SDS011;7834;49.452;11.056;2022-11-20T07:43:00;23.63;;;15.23;;
15466;SDS011;7834;49.452;11.056;2022-11-20T07:45:26;23.03;;;14.60;;
15466;SDS011;7834;49.452;11.056;2022-11-20T07:47:52;23.77;;;14.70;;
15466;SDS011;7834;49.452;11.056;2022-11-20T07:50:18;26.10;;;16.13;;
15466;SDS011;7834;49.452;11.056;2022-11-20T07:52:45;25.03;;;15.43;;
15466;SDS011;7834;49.452;11.056;2022-11-20T07:55:11;24.43;;;15.17;;
15466;SDS011;7834;49.452;11.056;2022-11-20T07:57:37;23.90;;;15.03;;
15466;SDS011;7834;49.452;11.056;2022-11-20T08:00:04;26.10;;;15.43;;
15466;SDS011;7834;49.452;11.056;2022-11-20T08:02:30;22.60;;;14.70;;
15466;SDS011;7834;49.452;11.056;2022-11-20T08:04:56;22.17;;;14.13;;
15466;SDS011;7834;49.452;11.056;2022-11-20T08:07:22;22.90;;;14.40;;
15466;SDS011;7834;49.452;11.056;2022-11-20T08:09:48;21.93;;;14.00;;
15466;SDS011;7834;49.452;11.056;2022-11-20T08:12:20;19.60;;;12.70;;
15466;SDS011;7834;49.452;11.056;2022-11-20T08:15:05;20.43;;;13.93;;
15466;SDS011;7834;49.452;11.056;2022-11-20T08:17:31;20.93;;;13.97;;
15466;SDS011;7834;49.452;11.056;2022-11-20T08:19:57;20.93;;;13.70;;
15466;SDS011;7834;49.452;11.056;2022-11-20T08:22:23;21.57;;;14.07;;
15466;SDS011;7834;49.452;11.056;2022-11-20T08:24:50;26.57;;;17.27;;
15466;SDS011;7834;49.452;11.056;2022-11-20T08:27:16;22.77;;;15.83;;
15466;SDS011;7834;49.452;11.056;2022-11-20T08:29:42;22.57;;;15.37;;
15466;SDS011;7834;49.452;11.056;2022-11-20T08:32:08;19.73;;;13.63;;
15466;SDS011;7834;49.452;11.056;2022-11-20T08:34:34;22.63;;;14.73;;
15466;SDS011;7834;49.452;11.056;2022-11-20T08:37:01;21.83;;;14.13;;
15466;SDS011;7834;49.452;11.056;2022-11-20T08:39:27;21.97;;;12.60;;
15466;SDS011;7834;49.452;11.056;2022-11-20T08:41:53;19.67;;;12.47;;
15466;SDS011;7834;49.452;11.056;2022-11-20T08:44:19;20.27;;;13.43;;
15466;SDS011;7834;49.452;11.056;2022-11-20T08:46:45;20.67;;;13.87;;
15466;SDS011;7834;49.452;11.056;2022-11-20T08:49:12;21.63;;;14.90;;
15466;SDS011;7834;49.452;11.056;2022-11-20T08:51:39;19.67;;;13.77;;
15466;SDS011;7834;49.452;11.056;2022-11-20T08:54:05;21.67;;;14.50;;
15466;SDS011;7834;49.452;11.056;2022-11-20T08:56:31;21.40;;;15.33;;
15466;SDS011;7834;49.452;11.056;2022-11-20T08:58:58;21.67;;;14.27;;
15466;SDS011;7834;49.452;11.056;2022-11-20T09:01:27;20.93;;;14.10;;
15466;SDS011;7834;49.452;11.056;2022-11-20T09:03:56;19.73;;;13.20;;
15466;SDS011;7834;49.452;11.056;2022-11-20T09:06:24;21.57;;;12.90;;
15466;SDS011;7834;49.452;11.056;2022-11-20T09:08:54;19.23;;;12.77;;
15466;SDS011;7834;49.452;11.056;2022-11-20T09:11:20;20.97;;;13.27;;
15466;SDS011;7834;49.452;11.056;2022-11-20T09:13:46;16.83;;;12.10;;
15466;SDS011;7834;49.452;11.056;2022-11-20T09:16:12;18.50;;;13.00;;
15466;SDS011;7834;49.452;11.056;2022-11-20T09:18:38;18.97;;;12.53;;
15466;SDS011;7834;49.452;11.056;2022-11-20T09:21:06;17.87;;;11.93;;
15466;SDS011;7834;49.452;11.056;2022-11-20T09:23:33;19.90;;;13.20;;
15466;SDS011;7834;49.452;11.056;2022-11-20T09:26:06;21.87;;;13.43;;
15466;SDS011;7834;49.452;11.056;2022-11-20T09:28:32;18.50;;;12.77;;
15466;SDS011;7834;49.452;11.056;2022-11-20T09:30:59;19.87;;;12.00;;
15466;SDS011;7834;49.452;11.056;2022-11-20T09:33:25;18.10;;;12.03;;
15466;SDS011;7834;49.452;11.056;2022-11-20T09:35:51;18.47;;;12.77;;
15466;SDS011;7834;49.452;11.056;2022-11-20T09:38:17;18.10;;;12.40;;
15466;SDS011;7834;49.452;11.056;2022-11-20T09:40:45;16.93;;;12.27;;
15466;SDS011;7834;49.452;11.056;2022-11-20T09:43:18;17.03;;;11.93;;
15466;SDS011;7834;49.452;11.056;2022-11-20T09:45:57;17.80;;;12.37;;
15466;SDS011;7834;49.452;11.056;2022-11-20T09:51:17;19.93;;;13.57;;
15466;SDS011;7834;49.452;11.056;2022-11-20T09:56:13;24.57;;;16.47;;
15466;SDS011;7834;49.452;11.056;2022-11-20T09:58:40;20.70;;;13.77;;
15466;SDS011;7834;49.452;11.056;2022-11-20T10:01:14;17.17;;;11.60;;
15466;SDS011;7834;49.452;11.056;2022-11-20T10:03:57;19.90;;;13.03;;
15466;SDS011;7834;49.452;11.056;2022-11-20T10:06:28;18.37;;;13.87;;
15466;SDS011;7834;49.452;11.056;2022-11-20T10:08:59;18.97;;;13.50;;
15466;SDS011;7834;49.452;11.056;2022-11-20T10:24:56;19.67;;;13.93;;
15466;SDS011;7834;49.452;11.056;2022-11-20T10:29:57;17.10;;;12.43;;
15466;SDS011;7834;49.452;11.056;2022-11-20T10:32:28;19.30;;;12.23;;
15466;SDS011;7834;49.452;11.056;2022-11-20T10:35:06;16.70;;;12.17;;
15466;SDS011;7834;49.452;11.056;2022-11-20T10:37:36;16.03;;;11.87;;
15466;SDS011;7834;49.452;11.056;2022-11-20T10:42:51;16.53;;;12.27;;
15466;SDS011;7834;49.452;11.056;2022-11-20T10:47:56;16.30;;;11.77;;
15466;SDS011;7834;49.452;11.056;2022-11-20T10:50:25;18.93;;;11.90;;
15466;SDS011;7834;49.452;11.056;2022-11-20T10:55:47;19.37;;;12.13;;
15466;SDS011;7834;49.452;11.056;2022-11-20T10:58:16;17.87;;;12.70;;
15466;SDS011;7834;49.452;11.056;2022-11-20T11:00:47;19.77;;;13.07;;
15466;SDS011;7834;49.452;11.056;2022-11-20T11:03:19;19.83;;;12.33;;
15466;SDS011;7834;49.452;11.056;2022-11-20T11:08:32;20.60;;;13.33;;
15466;SDS011;7834;49.452;11.056;2022-11-20T11:11:02;18.37;;;12.70;;
15466;SDS011;7834;49.452;11.056;2022-11-20T11:13:31;17.60;;;12.20;;
15466;SDS011;7834;49.452;11.056;2022-11-20T11:15:57;18.97;;;13.07;;
15466;SDS011;7834;49.452;11.056;2022-11-20T11:18:24;19.50;;;13.73;;
15466;SDS011;7834;49.452;11.056;2022-11-20T11:20:51;18.43;;;14.10;;
15466;SDS011;7834;49.452;11.056;2022-11-20T11:25:57;19.80;;;13.90;;
15466;SDS011;7834;49.452;11.056;2022-11-20T11:28:24;20.77;;;13.57;;
15466;SDS011;7834;49.452;11.056;2022-11-20T11:30:52;22.07;;;15.50;;
15466;SDS011;7834;49.452;11.056;2022-11-20T11:33:19;21.70;;;14.07;;
15466;SDS011;7834;49.452;11.056;2022-11-20T11:35:46;21.70;;;13.70;;
15466;SDS011;7834;49.452;11.056;2022-11-20T11:38:14;20.10;;;13.23;;
15466;SDS011;7834;49.452;11.056;2022-11-20T11:40:42;18.30;;;12.70;;
15466;SDS011;7834;49.452;11.056;2022-11-20T11:46:32;18.30;;;11.83;;
15466;SDS011;7834;49.452;11.056;2022-11-20T11:49:11;20.37;;;12.47;;
15466;SDS011;7834;49.452;11.056;2022-11-20T11:55:17;17.77;;;12.30;;
15466;SDS011;7834;49.452;11.056;2022-11-20T11:57:12;13.63;;;10.40;;
15466;SDS011;7834;49.452;11.056;2022-11-20T11:59:51;15.27;;;10.30;;
15466;SDS011;7834;49.452;11.056;2022-11-20T12:02:40;11.37;;;8.40;;
15466;SDS011;7834;49.452;11.056;2022-11-20T12:05:16;14.13;;;8.93;;
15466;SDS011;7834;49.452;11.056;2022-11-20T12:07:50;14.27;;;9.53;;
15466;SDS011;7834;49.452;11.056;2022-11-20T12:10:20;13.73;;;9.13;;
15466;SDS011;7834;49.452;11.056;2022-11-20T12:12:54;14.27;;;9.37;;
15466;SDS011;7834;49.452;11.056;2022-11-20T12:15:24;13.93;;;9.67;;
15466;SDS011;7834;49.452;11.056;2022-11-20T12:17:51;13.03;;;9.60;;
15466;SDS011;7834;49.452;11.056;2022-11-20T12:20:17;15.97;;;10.20;;
15466;SDS011;7834;49.452;11.056;2022-11-20T12:22:53;16.83;;;12.83;;
15466;SDS011;7834;49.452;11.056;2022-11-20T12:25:28;14.17;;;10.73;;
15466;SDS011;7834;49.452;11.056;2022-11-20T12:30:22;16.83;;;13.17;;
15466;SDS011;7834;49.452;11.056;2022-11-20T12:38:11;13.57;;;10.10;;
15466;SDS011;7834;49.452;11.056;2022-11-20T12:43:24;23.87;;;17.47;;
15466;SDS011;7834;49.452;11.056;2022-11-20T12:46:32;11.57;;;8.93;;
15466;SDS011;7834;49.452;11.056;2022-11-20T12:59:22;13.87;;;9.83;;
15466;SDS011;7834;49.452;11.056;2022-11-20T13:06:45;30.50;;;20.00;;
15466;SDS011;7834;49.452;11.056;2022-11-20T13:09:13;13.60;;;9.40;;
15466;SDS011;7834;49.452;11.056;2022-11-20T13:16:37;12.63;;;9.13;;
15466;SDS011;7834;49.452;11.056;2022-11-20T13:19:04;24.17;;;14.43;;
15466;SDS011;7834;49.452;11.056;2022-11-20T13:21:35;15.43;;;11.27;;
15466;SDS011;7834;49.452;11.056;2022-11-20T13:24:20;17.97;;;12.50;;
15466;SDS011;7834;49.452;11.056;2022-11-20T13:26:58;14.13;;;10.43;;
15466;SDS011;7834;49.452;11.056;2022-11-20T13:29:25;13.70;;;10.10;;
15466;SDS011;7834;49.452;11.056;2022-11-20T13:32:00;16.07;;;10.80;;
15466;SDS011;7834;49.452;11.056;2022-11-20T13:34:27;13.87;;;10.13;;
15466;SDS011;7834;49.452;11.056;2022-11-20T13:36:56;14.37;;;10.87;;
15466;SDS011;7834;49.452;11.056;2022-11-20T13:41:55;11.83;;;10.07;;
15466;SDS011;7834;49.452;11.056;2022-11-20T13:46:47;13.93;;;9.93;;
15466;SDS011;7834;49.452;11.056;2022-11-20T13:49:21;15.53;;;11.03;;
15466;SDS011;7834;49.452;11.056;2022-11-20T13:51:50;14.77;;;10.37;;
15466;SDS011;7834;49.452;11.056;2022-11-20T14:02:15;14.93;;;10.80;;
15466;SDS011;7834;49.452;11.056;2022-11-20T14:04:54;14.23;;;10.57;;
15466;SDS011;7834;49.452;11.056;2022-11-20T14:07:23;13.07;;;10.27;;
15466;SDS011;7834;49.452;11.056;2022-11-20T14:09:54;12.23;;;9.03;;
15466;SDS011;7834;49.452;11.056;2022-11-20T14:12:21;12.40;;;8.67;;
15466;SDS011;7834;49.452;11.056;2022-11-20T14:14:49;13.17;;;8.83;;
15466;SDS011;7834;49.452;11.056;2022-11-20T14:19:54;13.97;;;9.63;;
15466;SDS011;7834;49.452;11.056;2022-11-20T14:22:22;12.97;;;9.60;;
15466;SDS011;7834;49.452;11.056;2022-11-20T14:24:49;13.10;;;9.50;;
15466;SDS011;7834;49.452;11.056;2022-11-20T14:27:25;14.73;;;10.57;;
15466;SDS011;7834;49.452;11.056;2022-11-20T14:29:51;12.70;;;9.80;;
15466;SDS011;7834;49.452;11.056;2022-11-20T14:32:18;12.23;;;9.53;;
15466;SDS011;7834;49.452;11.056;2022-11-20T14:34:45;14.37;;;9.90;;
15466;SDS011;7834;49.452;11.056;2022-11-20T14:37:13;12.27;;;9.13;;
15466;SDS011;7834;49.452;11.056;2022-11-20T14:39:47;13.63;;;9.77;;
15466;SDS011;7834;49.452;11.056;2022-11-20T14:42:18;11.87;;;8.93;;
15466;SDS011;7834;49.452;11.056;2022-11-20T14:44:45;14.57;;;10.47;;
15466;SDS011;7834;49.452;11.056;2022-11-20T14:47:15;11.00;;;8.33;;
15466;SDS011;7834;49.452;11.056;2022-11-20T14:49:43;11.53;;;8.87;;
15466;SDS011;7834;49.452;11.056;2022-11-20T14:52:11;14.27;;;9.77;;
15466;SDS011;7834;49.452;11.056;2022-11-20T14:57:20;12.33;;;8.07;;
15466;SDS011;7834;49.452;11.056;2022-11-20T14:59:46;11.50;;;8.63;;
15466;SDS011;7834;49.452;11.056;2022-11-20T15:02:12;11.37;;;8.90;;
15466;SDS011;7834;49.452;11.056;2022-11-20T15:04:48;11.10;;;9.33;;
15466;SDS011;7834;49.452;11.056;2022-11-20T15:07:24;12.57;;;9.77;;
15466;SDS011;7834;49.452;11.056;2022-11-20T15:10:01;14.43;;;10.33;;
15466;SDS011;7834;49.452;11.056;2022-11-20T15:12:27;13.10;;;9.87;;
15466;SDS011;7834;49.452;11.056;2022-11-20T15:14:54;12.23;;;8.90;;
15466;SDS011;7834;49.452;11.056;2022-11-20T15:17:20;13.40;;;9.80;;
15466;SDS011;7834;49.452;11.056;2022-11-20T15:19:46;13.63;;;9.73;;
15466;SDS011;7834;49.452;11.056;2022-11-20T15:22:12;13.27;;;9.93;;
15466;SDS011;7834;49.452;11.056;2022-11-20T15:24:41;14.33;;;9.80;;
15466;SDS011;7834;49.452;11.056;2022-11-20T15:27:08;11.90;;;8.97;;
15466;SDS011;7834;49.452;11.056;2022-11-20T15:29:34;12.83;;;9.80;;
15466;SDS011;7834;49.452;11.056;2022-11-20T15:32:00;12.73;;;9.70;;
15466;SDS011;7834;49.452;11.056;2022-11-20T15:34:26;12.30;;;9.10;;
15466;SDS011;7834;49.452;11.056;2022-11-20T15:36:52;12.97;;;9.77;;
15466;SDS011;7834;49.452;11.056;2022-11-20T15:39:19;14.43;;;10.50;;
15466;SDS011;7834;49.452;11.056;2022-11-20T15:41:45;15.03;;;11.33;;
15466;SDS011;7834;49.452;11.056;2022-11-20T15:44:11;12.37;;;9.87;;
15466;SDS011;7834;49.452;11.056;2022-11-20T15:46:39;13.33;;;10.80;;
15466;SDS011;7834;49.452;11.056;2022-11-20T15:49:16;32.43;;;19.80;;
15466;SDS011;7834;49.452;11.056;2022-11-20T15:51:48;17.37;;;11.70;;
15466;SDS011;7834;49.452;11.056;2022-11-20T15:54:15;16.30;;;11.43;;
15466;SDS011;7834;49.452;11.056;2022-11-20T15:56:43;14.07;;;10.40;;
15466;SDS011;7834;49.452;11.056;2022-11-20T15:59:09;15.40;;;11.13;;
15466;SDS011;7834;49.452;11.056;2022-11-20T16:01:35;13.93;;;10.43;;
15466;SDS011;7834;49.452;11.056;2022-11-20T16:04:01;14.60;;;10.40;;